createdAt,value
2022-11-02T00:04:10.694Z,101495.38
2022-11-02T00:09:04.974Z,101519.66
2022-11-02T00:13:58.627Z,101546.50
2022-11-02T00:18:59.426Z,101531.44
2022-11-02T00:23:53.640Z,101527.25
2022-11-02T00:28:46.986Z,101505.69
2022-11-02T00:33:40.195Z,101516.16
2022-11-02T00:38:35.998Z,101539.41
2022-11-02T00:43:28.894Z,101535.91
2022-11-02T00:48:22.449Z,101510.78
2022-11-02T00:53:15.774Z,101534.19
2022-11-02T00:58:16.130Z,101529.72
2022-11-02T01:03:09.617Z,101510.84
2022-11-02T01:08:03.896Z,101504.75
2022-11-02T01:12:58.627Z,101522.88
2022-11-02T01:17:53.005Z,101522.88
2022-11-02T01:22:46.178Z,101508.72
2022-11-02T01:27:39.790Z,101527.31
2022-11-02T01:32:32.524Z,101513.19
2022-11-02T01:37:26.171Z,101488.22
2022-11-02T01:42:24.803Z,101507.00
2022-11-02T01:47:32.285Z,101456.06
2022-11-02T01:52:39.038Z,101506.16
2022-11-02T01:57:34.575Z,101499.94
2022-11-02T02:02:28.883Z,101488.38
2022-11-02T02:07:25.119Z,101487.50
2022-11-02T02:12:18.753Z,101472.16
2022-11-02T02:17:37.758Z,101484.84
2022-11-02T02:22:33.569Z,101501.72
2022-11-02T02:27:47.220Z,101495.56
2022-11-02T02:32:56.736Z,101487.03
2022-11-02T02:38:02.674Z,101465.22
2022-11-02T02:43:29.214Z,101474.16
2022-11-02T02:48:31.232Z,101461.06
2022-11-02T02:53:36.132Z,101486.75
2022-11-02T02:58:36.433Z,101468.00
2022-11-02T03:03:35.438Z,101466.19
2022-11-02T03:08:30.511Z,101492.13
2022-11-02T03:13:48.447Z,101483.31
2022-11-02T03:18:49.759Z,101486.91
2022-11-02T03:24:10.033Z,101493.13
2022-11-02T03:30:01.439Z,101485.19
2022-11-02T03:34:59.534Z,101496.81
2022-11-02T03:40:11.807Z,101489.13
2022-11-02T03:45:39.814Z,101503.09
2022-11-02T03:50:53.567Z,101499.00
2022-11-02T03:56:09.504Z,101462.84
2022-11-02T04:01:10.980Z,101494.53
2022-11-02T04:06:05.372Z,101510.06
2022-11-02T04:11:19.909Z,101494.19
2022-11-02T04:16:15.841Z,101534.06
2022-11-02T04:21:28.580Z,101529.69
2022-11-02T04:26:43.942Z,101528.91
2022-11-02T04:31:37.058Z,101534.22
2022-11-02T04:36:31.971Z,101503.03
2022-11-02T04:41:43.844Z,101521.88
2022-11-02T04:46:44.975Z,101528.91
2022-11-02T04:51:47.161Z,101520.34
2022-11-02T04:56:43.812Z,101525.50
2022-11-02T05:01:38.850Z,101523.00
2022-11-02T05:06:32.555Z,101527.19
2022-11-02T05:11:26.020Z,101506.75
2022-11-02T05:16:21.531Z,101529.09
2022-11-02T05:21:17.890Z,101506.75
2022-11-02T05:26:12.358Z,101503.03
2022-11-02T05:31:09.502Z,101514.16
2022-11-02T05:36:02.827Z,101516.91
2022-11-02T05:41:03.233Z,101489.19
2022-11-02T05:46:03.688Z,101482.22
2022-11-02T05:51:01.964Z,101497.63
2022-11-02T05:55:59.647Z,101482.97
2022-11-02T06:00:53.379Z,101510.88
2022-11-02T06:05:46.970Z,101545.28
2022-11-02T06:10:39.557Z,101561.19
2022-11-02T06:15:37.162Z,101578.00
2022-11-02T06:20:31.535Z,101571.28
2022-11-02T06:25:25.476Z,101556.44
2022-11-02T06:30:19.722Z,101582.56
2022-11-02T06:35:13.715Z,101580.84
2022-11-02T06:40:08.352Z,101600.16
2022-11-02T06:45:03.140Z,101609.06
2022-11-02T06:49:56.666Z,101582.69
2022-11-02T06:54:51.134Z,101591.34
2022-11-02T06:59:47.794Z,101570.66
2022-11-02T07:04:43.304Z,101604.97
2022-11-02T07:09:41.843Z,101598.59
2022-11-02T07:14:35.295Z,101606.63
2022-11-02T07:19:29.588Z,101605.75
2022-11-02T07:24:23.614Z,101600.59
2022-11-02T07:29:18.463Z,101599.53
2022-11-02T07:34:16.667Z,101601.38
2022-11-02T07:39:10.421Z,101605.75
2022-11-02T07:44:03.933Z,101593.56
2022-11-02T07:49:02.535Z,101600.47
2022-11-02T07:53:56.837Z,101598.72
2022-11-02T07:58:50.465Z,101593.66
2022-11-02T08:03:43.706Z,101579.06
2022-11-02T08:08:37.792Z,101599.03
2022-11-02T08:13:33.161Z,101593.00
2022-11-02T08:18:28.689Z,101623.53
2022-11-02T08:23:22.048Z,101601.16
2022-11-02T08:28:27.099Z,101598.41
2022-11-02T08:33:20.419Z,101585.38
2022-11-02T08:38:13.166Z,101602.69
2022-11-02T08:43:08.739Z,101547.47
2022-11-02T08:48:02.845Z,101578.97
2022-11-02T08:52:56.510Z,101576.50
2022-11-02T08:57:54.814Z,101585.69
2022-11-02T09:03:14.114Z,101586.66
2022-11-02T09:08:14.013Z,101587.53
2022-11-02T09:13:10.330Z,101588.38
2022-11-02T09:18:04.072Z,101606.22
2022-11-02T09:22:57.650Z,101587.88
2022-11-02T09:27:57.186Z,101584.56
2022-11-02T09:33:04.244Z,101606.13
2022-11-02T09:37:58.383Z,101613.22
2022-11-02T09:43:09.321Z,101559.38
2022-11-02T09:48:23.344Z,101566.19
2022-11-02T09:53:40.731Z,101571.59
2022-11-02T09:58:38.925Z,101585.22
2022-11-02T10:03:46.296Z,101555.72
2022-11-02T10:09:08.389Z,101583.06
2022-11-02T10:14:28.223Z,101580.94
2022-11-02T10:19:26.227Z,101555.78
2022-11-02T10:24:22.714Z,101550.69
2022-11-02T10:29:18.534Z,101576.56
2022-11-02T10:34:28.414Z,101566.19
2022-11-02T10:39:53.097Z,101549.88
2022-11-02T10:45:00.325Z,101529.41
2022-11-02T10:50:20.990Z,101539.84
2022-11-02T10:55:52.116Z,101559.50
2022-11-02T11:00:45.266Z,101539.13
2022-11-02T11:05:49.863Z,101559.50
2022-11-02T11:10:51.714Z,101541.25
2022-11-02T11:15:53.219Z,101526.94
2022-11-02T11:20:47.190Z,101504.16
2022-11-02T11:25:41.868Z,101500.13
2022-11-02T11:31:06.137Z,101514.63
2022-11-02T11:36:01.749Z,101489.53
2022-11-02T11:40:59.714Z,101490.75
2022-11-02T11:46:06.490Z,101501.41
2022-11-02T11:51:05.314Z,101474.75
2022-11-02T11:55:59.980Z,101498.78
2022-11-02T12:01:11.263Z,101469.63
2022-11-02T12:06:08.479Z,101483.78
2022-11-02T12:11:19.106Z,101467.84
2022-11-02T12:16:22.499Z,101464.25
2022-11-02T12:21:27.924Z,101465.63
2022-11-02T12:26:36.032Z,101480.06
2022-11-02T12:31:41.263Z,101440.84
2022-11-02T12:42:27.812Z,101411.63
2022-11-02T12:47:47.299Z,101437.41
2022-11-02T12:52:44.929Z,101439.28
2022-11-02T12:57:39.508Z,101426.38
2022-11-02T13:02:37.023Z,101436.56
2022-11-02T13:07:56.927Z,101392.84
2022-11-02T13:12:53.896Z,101433.06
2022-11-02T13:18:07.779Z,101435.72
2022-11-02T13:23:08.456Z,101429.38
2022-11-02T13:28:06.264Z,101383.50
2022-11-02T13:33:26.536Z,101436.09
2022-11-02T13:38:28.576Z,101416.19
2022-11-02T13:43:36.707Z,101413.47
2022-11-02T13:48:48.805Z,101404.59
2022-11-02T13:53:52.368Z,101412.56
2022-11-02T13:58:53.854Z,101363.59
2022-11-02T14:03:49.889Z,101405.59
2022-11-02T14:08:51.055Z,101395.72
2022-11-02T14:14:04.259Z,101400.94
2022-11-02T14:19:34.283Z,101389.84
2022-11-02T14:24:40.451Z,101415.03
2022-11-02T14:29:48.573Z,101403.03
2022-11-02T14:35:01.118Z,101416.84
2022-11-02T14:40:12.576Z,101391.13
2022-11-02T14:45:08.130Z,101426.50
2022-11-02T14:50:15.120Z,101410.31
2022-11-02T14:55:20.164Z,101437.97
2022-11-02T15:00:23.504Z,101445.91
2022-11-02T15:05:39.644Z,101445.13
2022-11-02T15:10:32.804Z,101456.50
2022-11-02T15:15:25.417Z,101435.31
2022-11-02T15:20:27.742Z,101433.75
2022-11-02T15:25:35.937Z,101418.09
2022-11-02T15:30:30.396Z,101405.75
2022-11-02T15:35:26.656Z,101411.63
2022-11-02T15:40:23.487Z,101385.97
2022-11-02T15:45:48.831Z,101423.78
2022-11-02T15:51:01.314Z,101433.44
2022-11-02T15:56:13.541Z,101416.75
2022-11-02T16:01:22.067Z,101425.63
2022-11-02T16:06:16.315Z,101409.03
2022-11-02T16:11:17.604Z,101381.47
2022-11-02T16:16:19.022Z,101394.47
2022-11-02T16:21:16.650Z,101423.06
2022-11-02T16:26:20.359Z,101389.03
2022-11-02T16:31:18.469Z,101414.97
2022-11-02T16:36:17.255Z,101399.59
2022-11-02T16:41:10.848Z,101389.13
2022-11-02T16:46:06.752Z,101372.28
2022-11-02T16:51:14.844Z,101369.31
2022-11-02T16:56:16.732Z,101388.19
2022-11-02T17:01:24.297Z,101389.97
2022-11-02T17:06:19.539Z,101412.25
2022-11-02T17:11:16.543Z,101388.13
2022-11-02T17:16:11.965Z,101435.16
2022-11-02T17:21:14.814Z,101424.56
2022-11-02T17:26:22.886Z,101437.81
2022-11-02T17:31:20.621Z,101437.97
2022-11-02T17:36:15.103Z,101419.50
2022-11-02T17:41:30.786Z,101447.84
2022-11-02T17:46:23.463Z,101436.56
2022-11-02T17:51:16.337Z,101455.94
2022-11-02T17:56:11.366Z,101435.38
2022-11-02T18:01:06.883Z,101422.13
2022-11-02T18:06:00.945Z,101442.56
2022-11-02T18:10:55.504Z,101460.44
2022-11-02T18:15:49.629Z,101461.22
2022-11-02T18:20:43.102Z,101448.41
2022-11-02T18:25:36.702Z,101449.34
2022-11-02T18:30:32.455Z,101479.41
2022-11-02T18:35:25.652Z,101468.94
2022-11-02T18:40:21.405Z,101463.72
2022-11-02T18:45:15.645Z,101472.53
2022-11-02T18:50:09.794Z,101458.56
2022-11-02T18:55:04.090Z,101443.13
2022-11-02T18:59:56.770Z,101437.16
2022-11-02T19:04:49.843Z,101469.09
2022-11-02T19:09:43.738Z,101462.63
2022-11-02T19:14:40.967Z,101467.88
2022-11-02T19:19:34.311Z,101464.75
2022-11-02T19:24:27.598Z,101436.63
2022-11-02T19:29:21.607Z,101439.34
2022-11-02T19:34:15.298Z,101462.13
2022-11-02T19:39:14.325Z,101453.66
2022-11-02T19:44:08.613Z,101456.44
2022-11-02T19:49:02.016Z,101479.16
2022-11-02T19:53:58.728Z,101459.31
2022-11-02T19:58:52.847Z,101471.34
2022-11-02T20:03:47.973Z,101471.56
2022-11-02T20:08:41.373Z,101460.47
2022-11-02T20:13:37.125Z,101489.75
2022-11-02T20:18:31.013Z,101471.28
2022-11-02T20:23:24.867Z,101466.47
2022-11-02T20:28:18.597Z,101490.41
2022-11-02T20:33:11.634Z,101490.97
2022-11-02T20:38:05.597Z,101490.34
2022-11-02T20:42:59.776Z,101469.09
2022-11-02T20:47:57.759Z,101489.66
2022-11-02T20:52:53.570Z,101499.72
2022-11-02T20:57:49.573Z,101504.09
2022-11-02T21:02:43.461Z,101505.94
2022-11-02T21:07:37.087Z,101509.75
2022-11-02T21:12:48.571Z,101513.69
2022-11-02T21:17:44.168Z,101503.44
2022-11-02T21:22:37.733Z,101513.03
2022-11-02T21:27:31.734Z,101489.00
2022-11-02T21:32:29.856Z,101493.84
2022-11-02T21:37:23.451Z,101504.03
2022-11-02T21:42:16.627Z,101491.56
2022-11-02T21:47:11.395Z,101477.03
2022-11-02T21:52:04.639Z,101481.00
2022-11-02T21:56:59.586Z,101492.50
2022-11-02T22:01:53.599Z,101509.31
2022-11-02T22:06:47.058Z,101489.09
2022-11-02T22:11:41.159Z,101485.50
2022-11-02T22:16:36.683Z,101481.94
2022-11-02T22:21:32.013Z,101457.47
2022-11-02T22:26:27.780Z,101467.13
2022-11-02T22:31:30.113Z,101453.31
2022-11-02T22:36:25.664Z,101456.81
2022-11-02T22:41:26.655Z,101446.44
2022-11-02T22:46:19.907Z,101449.09
2022-11-02T22:51:14.628Z,101448.28
2022-11-02T22:56:29.472Z,101471.66
2022-11-02T23:01:29.139Z,101460.25
2022-11-02T23:06:23.792Z,101439.63
2022-11-02T23:11:24.484Z,101428.56
2022-11-02T23:16:22.174Z,101455.81
2022-11-02T23:21:16.256Z,101454.94
2022-11-02T23:26:09.313Z,101434.28
2022-11-02T23:31:21.217Z,101426.38
2022-11-02T23:36:16.016Z,101457.69
2022-11-02T23:41:08.926Z,101433.50
2022-11-02T23:46:02.626Z,101437.16
2022-11-02T23:51:16.234Z,101430.19
2022-11-02T23:56:35.118Z,101449.88
